sensor_id;sensor_type;location;lat;lon;timestamp;pressure;altitude;pressure_sealevel;temperature;humidity
64739;BME280;51175;51.186;0.276;2023-03-25T00:00:15;99648.97;;;15.34;67.66
64739;BME280;51175;51.186;0.276;2023-03-25T00:00:47;99655.88;;;15.35;67.51
64739;BME280;51175;51.186;0.276;2023-03-25T00:01:18;99656.16;;;15.34;67.65
64739;BME280;51175;51.186;0.276;2023-03-25T00:01:49;99645.53;;;15.34;67.32
64739;BME280;51175;51.186;0.276;2023-03-25T00:02:20;99650.06;;;15.33;67.69
64739;BME280;51175;51.186;0.276;2023-03-25T00:02:51;99645.53;;;15.34;67.68
64739;BME280;51175;51.186;0.276;2023-03-25T00:03:21;99644.75;;;15.33;67.47
64739;BME280;51175;51.186;0.276;2023-03-25T00:03:53;99643.94;;;15.33;67.64
64739;BME280;51175;51.186;0.276;2023-03-25T00:04:23;99639.41;;;15.33;67.53
64739;BME280;51175;51.186;0.276;2023-03-25T00:04:56;99642.06;;;15.33;67.58
64739;BME280;51175;51.186;0.276;2023-03-25T00:05:29;99645.81;;;15.32;67.38
64739;BME280;51175;51.186;0.276;2023-03-25T00:06:00;99645.06;;;15.32;67.37
64739;BME280;51175;51.186;0.276;2023-03-25T00:06:31;99643.94;;;15.33;67.59
64739;BME280;51175;51.186;0.276;2023-03-25T00:07:04;99645.06;;;15.32;67.54
64739;BME280;51175;51.186;0.276;2023-03-25T00:07:35;99648.03;;;15.30;67.53
64739;BME280;51175;51.186;0.276;2023-03-25T00:08:06;99640.81;;;15.31;67.36
64739;BME280;51175;51.186;0.276;2023-03-25T00:08:36;99661.31;;;15.30;67.76
64739;BME280;51175;51.186;0.276;2023-03-25T00:09:07;99648.03;;;15.30;67.30
64739;BME280;51175;51.186;0.276;2023-03-25T00:09:37;99646.13;;;15.31;67.54
64739;BME280;51175;51.186;0.276;2023-03-25T00:10:08;99649.59;;;15.31;67.36
64739;BME280;51175;51.186;0.276;2023-03-25T00:10:39;99651.44;;;15.31;67.50
64739;BME280;51175;51.186;0.276;2023-03-25T00:11:09;99653.34;;;15.30;67.37
64739;BME280;51175;51.186;0.276;2023-03-25T00:11:40;99649.88;;;15.30;67.80
64739;BME280;51175;51.186;0.276;2023-03-25T00:12:10;99656.00;;;15.30;67.76
64739;BME280;51175;51.186;0.276;2023-03-25T00:12:41;99656.00;;;15.30;67.61
64739;BME280;51175;51.186;0.276;2023-03-25T00:13:14;99657.88;;;15.30;67.68
64739;BME280;51175;51.186;0.276;2023-03-25T00:13:45;99660.53;;;15.30;67.49
64739;BME280;51175;51.186;0.276;2023-03-25T00:14:17;99658.97;;;15.29;67.50
64739;BME280;51175;51.186;0.276;2023-03-25T00:14:48;99667.72;;;15.29;67.45
64739;BME280;51175;51.186;0.276;2023-03-25T00:15:23;99664.28;;;15.29;67.57
64739;BME280;51175;51.186;0.276;2023-03-25T00:15:53;99663.50;;;15.28;67.43
64739;BME280;51175;51.186;0.276;2023-03-25T00:16:27;99660.06;;;15.27;67.34
64739;BME280;51175;51.186;0.276;2023-03-25T00:16:57;99663.50;;;15.28;67.50
64739;BME280;51175;51.186;0.276;2023-03-25T00:17:27;99663.81;;;15.26;67.63
64739;BME280;51175;51.186;0.276;2023-03-25T00:18:00;99660.38;;;15.26;67.65
64739;BME280;51175;51.186;0.276;2023-03-25T00:18:31;99660.38;;;15.26;67.35
64739;BME280;51175;51.186;0.276;2023-03-25T00:19:02;99667.28;;;15.27;67.44
64739;BME280;51175;51.186;0.276;2023-03-25T00:19:33;99662.25;;;15.25;67.37
64739;BME280;51175;51.186;0.276;2023-03-25T00:20:06;99664.91;;;15.25;67.62
64739;BME280;51175;51.186;0.276;2023-03-25T00:20:39;99662.25;;;15.25;67.72
64739;BME280;51175;51.186;0.276;2023-03-25T00:21:10;99671.78;;;15.26;67.67
64739;BME280;51175;51.186;0.276;2023-03-25T00:21:41;99665.22;;;15.24;67.73
64739;BME280;51175;51.186;0.276;2023-03-25T00:22:13;99664.91;;;15.25;67.67
64739;BME280;51175;51.186;0.276;2023-03-25T00:22:44;99665.22;;;15.24;67.30
64739;BME280;51175;51.186;0.276;2023-03-25T00:23:16;99667.09;;;15.23;67.62
64739;BME280;51175;51.186;0.276;2023-03-25T00:23:46;99667.88;;;15.24;67.67
64739;BME280;51175;51.186;0.276;2023-03-25T00:24:17;99655.66;;;15.23;67.49
64739;BME280;51175;51.186;0.276;2023-03-25T00:24:47;99658.00;;;15.24;67.74
64739;BME280;51175;51.186;0.276;2023-03-25T00:25:18;99661.78;;;15.23;67.50
64739;BME280;51175;51.186;0.276;2023-03-25T00:25:49;99663.66;;;15.23;67.48
64739;BME280;51175;51.186;0.276;2023-03-25T00:26:21;99664.75;;;15.22;67.47
64739;BME280;51175;51.186;0.276;2023-03-25T00:26:51;99666.31;;;15.23;67.46
64739;BME280;51175;51.186;0.276;2023-03-25T00:27:23;99668.97;;;15.23;67.55
64739;BME280;51175;51.186;0.276;2023-03-25T00:27:53;99665.53;;;15.22;67.83
64739;BME280;51175;51.186;0.276;2023-03-25T00:28:23;99662.09;;;15.22;67.73
64739;BME280;51175;51.186;0.276;2023-03-25T00:28:54;99663.97;;;15.21;67.54
64739;BME280;51175;51.186;0.276;2023-03-25T00:29:25;99654.13;;;15.22;67.66
64739;BME280;51175;51.186;0.276;2023-03-25T00:29:55;99660.53;;;15.21;67.57
64739;BME280;51175;51.186;0.276;2023-03-25T00:30:25;99653.31;;;15.21;67.40
64739;BME280;51175;51.186;0.276;2023-03-25T00:31:00;99657.09;;;15.20;67.45
64739;BME280;51175;51.186;0.276;2023-03-25T00:31:31;99669.59;;;15.20;67.45
64739;BME280;51175;51.186;0.276;2023-03-25T00:32:02;99662.41;;;15.20;67.36
64739;BME280;51175;51.186;0.276;2023-03-25T00:32:32;99666.16;;;15.19;67.77
64739;BME280;51175;51.186;0.276;2023-03-25T00:33:02;99666.94;;;15.20;67.60
64739;BME280;51175;51.186;0.276;2023-03-25T00:33:33;99655.53;;;15.19;67.64
64739;BME280;51175;51.186;0.276;2023-03-25T00:34:04;99668.81;;;15.19;67.54
64739;BME280;51175;51.186;0.276;2023-03-25T00:34:34;99666.94;;;15.20;67.73
64739;BME280;51175;51.186;0.276;2023-03-25T00:35:10;99665.38;;;15.19;67.67
64739;BME280;51175;51.186;0.276;2023-03-25T00:35:42;99669.13;;;15.18;67.79
64739;BME280;51175;51.186;0.276;2023-03-25T00:36:13;99669.91;;;15.18;67.69
64739;BME280;51175;51.186;0.276;2023-03-25T00:36:44;99673.66;;;15.17;67.67
64739;BME280;51175;51.186;0.276;2023-03-25T00:37:15;99668.34;;;15.17;67.53
64739;BME280;51175;51.186;0.276;2023-03-25T00:37:47;99673.66;;;15.17;67.90
64739;BME280;51175;51.186;0.276;2023-03-25T00:38:21;99670.22;;;15.17;67.63
64739;BME280;51175;51.186;0.276;2023-03-25T00:38:53;99672.88;;;15.17;67.79
64739;BME280;51175;51.186;0.276;2023-03-25T00:39:23;99675.53;;;15.17;67.50
64739;BME280;51175;51.186;0.276;2023-03-25T00:39:54;99667.56;;;15.17;67.52
64739;BME280;51175;51.186;0.276;2023-03-25T00:40:26;99675.53;;;15.17;67.50
64739;BME280;51175;51.186;0.276;2023-03-25T00:41:15;99673.97;;;15.16;67.75
64739;BME280;51175;51.186;0.276;2023-03-25T00:41:46;99672.09;;;15.16;67.80
64739;BME280;51175;51.186;0.276;2023-03-25T00:42:17;99669.75;;;15.14;67.46
64739;BME280;51175;51.186;0.276;2023-03-25T00:42:55;99667.09;;;15.14;67.66
64739;BME280;51175;51.186;0.276;2023-03-25T00:43:26;99680.41;;;15.14;67.54
64739;BME280;51175;51.186;0.276;2023-03-25T00:43:58;99673.50;;;15.13;67.52
64739;BME280;51175;51.186;0.276;2023-03-25T00:44:29;99687.59;;;15.14;67.54
64739;BME280;51175;51.186;0.276;2023-03-25T00:44:59;99678.81;;;15.13;67.61
64739;BME280;51175;51.186;0.276;2023-03-25T00:45:30;99689.44;;;15.13;67.76
64739;BME280;51175;51.186;0.276;2023-03-25T00:46:00;99685.22;;;15.12;67.66
64739;BME280;51175;51.186;0.276;2023-03-25T00:46:32;99687.88;;;15.12;67.53
64739;BME280;51175;51.186;0.276;2023-03-25T00:47:03;99674.59;;;15.12;67.53
64739;BME280;51175;51.186;0.276;2023-03-25T00:47:33;99669.28;;;15.12;67.66
64739;BME280;51175;51.186;0.276;2023-03-25T00:48:03;99676.47;;;15.12;67.58
64739;BME280;51175;51.186;0.276;2023-03-25T00:48:34;99674.91;;;15.11;67.74
64739;BME280;51175;51.186;0.276;2023-03-25T00:49:04;99684.44;;;15.12;67.56
64739;BME280;51175;51.186;0.276;2023-03-25T00:49:35;99683.69;;;15.11;67.79
64739;BME280;51175;51.186;0.276;2023-03-25T00:50:06;99674.91;;;15.11;67.80
64739;BME280;51175;51.186;0.276;2023-03-25T00:50:36;99671.44;;;15.10;67.75
64739;BME280;51175;51.186;0.276;2023-03-25T00:51:06;99667.22;;;15.09;67.76
64739;BME280;51175;51.186;0.276;2023-03-25T00:51:38;99670.69;;;15.10;67.67
64739;BME280;51175;51.186;0.276;2023-03-25T00:52:09;99673.34;;;15.10;67.49
64739;BME280;51175;51.186;0.276;2023-03-25T00:52:40;99666.44;;;15.09;67.50
64739;BME280;51175;51.186;0.276;2023-03-25T00:53:10;99666.44;;;15.09;67.58
64739;BME280;51175;51.186;0.276;2023-03-25T00:53:40;99674.91;;;15.11;67.61
64739;BME280;51175;51.186;0.276;2023-03-25T00:54:11;99672.56;;;15.09;67.74
64739;BME280;51175;51.186;0.276;2023-03-25T00:54:42;99680.53;;;15.09;67.63
64739;BME280;51175;51.186;0.276;2023-03-25T00:55:13;99675.22;;;15.09;67.54
64739;BME280;51175;51.186;0.276;2023-03-25T00:55:43;99665.69;;;15.08;67.63
64739;BME280;51175;51.186;0.276;2023-03-25T00:56:14;99682.41;;;15.09;67.49
64739;BME280;51175;51.186;0.276;2023-03-25T00:56:44;99665.69;;;15.08;67.49
64739;BME280;51175;51.186;0.276;2023-03-25T00:57:15;99672.88;;;15.08;67.38
64739;BME280;51175;51.186;0.276;2023-03-25T00:57:46;99678.97;;;15.08;67.67
64739;BME280;51175;51.186;0.276;2023-03-25T00:58:17;99674.72;;;15.07;67.49
64739;BME280;51175;51.186;0.276;2023-03-25T00:58:47;99660.66;;;15.07;67.57
64739;BME280;51175;51.186;0.276;2023-03-25T00:59:18;99669.41;;;15.07;67.40
64739;BME280;51175;51.186;0.276;2023-03-25T00:59:48;99673.97;;;15.07;67.68
64739;BME280;51175;51.186;0.276;2023-03-25T01:00:18;99671.31;;;15.07;67.52
64739;BME280;51175;51.186;0.276;2023-03-25T01:00:49;99676.63;;;15.07;67.68
64739;BME280;51175;51.186;0.276;2023-03-25T01:01:22;99677.69;;;15.06;67.63
64739;BME280;51175;51.186;0.276;2023-03-25T01:01:56;99681.16;;;15.06;67.68
64739;BME280;51175;51.186;0.276;2023-03-25T01:02:27;99684.91;;;15.05;67.67
64739;BME280;51175;51.186;0.276;2023-03-25T01:02:58;99678.00;;;15.04;67.68
64739;BME280;51175;51.186;0.276;2023-03-25T01:03:28;99692.88;;;15.05;67.88
64739;BME280;51175;51.186;0.276;2023-03-25T01:03:58;99675.03;;;15.06;67.35
64739;BME280;51175;51.186;0.276;2023-03-25T01:04:29;99678.00;;;15.04;67.60
64739;BME280;51175;51.186;0.276;2023-03-25T01:05:00;99679.91;;;15.04;67.82
64739;BME280;51175;51.186;0.276;2023-03-25T01:05:30;99679.91;;;15.04;67.57
64739;BME280;51175;51.186;0.276;2023-03-25T01:06:01;99672.69;;;15.04;67.70
64739;BME280;51175;51.186;0.276;2023-03-25T01:06:34;99679.91;;;15.04;67.87
64739;BME280;51175;51.186;0.276;2023-03-25T01:07:04;99673.47;;;15.05;67.88
64739;BME280;51175;51.186;0.276;2023-03-25T01:07:36;99670.34;;;15.02;67.66
64739;BME280;51175;51.186;0.276;2023-03-25T01:08:07;99663.94;;;15.04;67.82
64739;BME280;51175;51.186;0.276;2023-03-25T01:08:39;99674.59;;;15.04;67.78
64739;BME280;51175;51.186;0.276;2023-03-25T01:09:12;99677.25;;;15.04;67.55
64739;BME280;51175;51.186;0.276;2023-03-25T01:09:43;99680.66;;;15.04;67.83
64739;BME280;51175;51.186;0.276;2023-03-25T01:10:15;99679.13;;;15.03;67.60
64739;BME280;51175;51.186;0.276;2023-03-25T01:10:46;99673.78;;;15.03;67.81
64739;BME280;51175;51.186;0.276;2023-03-25T01:11:21;99675.66;;;15.02;67.87
64739;BME280;51175;51.186;0.276;2023-03-25T01:11:52;99677.56;;;15.02;67.69
64739;BME280;51175;51.186;0.276;2023-03-25T01:12:23;99675.66;;;15.02;67.71
64739;BME280;51175;51.186;0.276;2023-03-25T01:12:54;99671.44;;;15.01;67.65
64739;BME280;51175;51.186;0.276;2023-03-25T01:13:25;99670.66;;;15.01;67.67
64739;BME280;51175;51.186;0.276;2023-03-25T01:13:57;99676.75;;;15.01;67.83
64739;BME280;51175;51.186;0.276;2023-03-25T01:14:28;99673.31;;;15.01;67.84
64739;BME280;51175;51.186;0.276;2023-03-25T01:14:59;99677.88;;;15.00;67.73
64739;BME280;51175;51.186;0.276;2023-03-25T01:15:30;99672.53;;;15.00;67.75
64739;BME280;51175;51.186;0.276;2023-03-25T01:16:00;99683.19;;;15.00;67.74
64739;BME280;51175;51.186;0.276;2023-03-25T01:16:31;99677.06;;;15.00;67.65
64739;BME280;51175;51.186;0.276;2023-03-25T01:17:01;99669.09;;;15.00;67.81
64739;BME280;51175;51.186;0.276;2023-03-25T01:17:32;99674.41;;;15.00;67.76
64739;BME280;51175;51.186;0.276;2023-03-25T01:18:02;99673.63;;;14.99;67.67
64739;BME280;51175;51.186;0.276;2023-03-25T01:18:33;99676.28;;;14.99;67.72
64739;BME280;51175;51.186;0.276;2023-03-25T01:19:07;99686.13;;;14.99;67.82
64739;BME280;51175;51.186;0.276;2023-03-25T01:19:37;99677.38;;;14.98;67.74
64739;BME280;51175;51.186;0.276;2023-03-25T01:20:08;99682.69;;;14.98;67.71
64739;BME280;51175;51.186;0.276;2023-03-25T01:20:39;99679.25;;;14.98;67.90
64739;BME280;51175;51.186;0.276;2023-03-25T01:21:09;99681.13;;;14.97;67.97
64739;BME280;51175;51.186;0.276;2023-03-25T01:21:40;99677.38;;;14.98;67.84
64739;BME280;51175;51.186;0.276;2023-03-25T01:22:11;99679.25;;;14.98;67.87
64739;BME280;51175;51.186;0.276;2023-03-25T01:22:41;99678.44;;;14.97;67.66
64739;BME280;51175;51.186;0.276;2023-03-25T01:23:11;99674.72;;;14.98;67.85
64739;BME280;51175;51.186;0.276;2023-03-25T01:23:42;99672.38;;;14.97;67.83
64739;BME280;51175;51.186;0.276;2023-03-25T01:24:13;99678.44;;;14.97;67.77
64739;BME280;51175;51.186;0.276;2023-03-25T01:24:44;99670.47;;;14.97;67.90
64739;BME280;51175;51.186;0.276;2023-03-25T01:25:15;99674.25;;;14.96;67.70
64739;BME280;51175;51.186;0.276;2023-03-25T01:25:45;99676.91;;;14.96;67.85
64739;BME280;51175;51.186;0.276;2023-03-25T01:26:16;99672.38;;;14.97;67.89
64739;BME280;51175;51.186;0.276;2023-03-25T01:26:46;99674.25;;;14.96;67.75
64739;BME280;51175;51.186;0.276;2023-03-25T01:27:17;99673.44;;;14.96;67.65
64739;BME280;51175;51.186;0.276;2023-03-25T01:27:47;99679.56;;;14.96;67.69
64739;BME280;51175;51.186;0.276;2023-03-25T01:28:17;99666.25;;;14.96;67.80
64739;BME280;51175;51.186;0.276;2023-03-25T01:28:49;99672.69;;;14.95;67.88
64739;BME280;51175;51.186;0.276;2023-03-25T01:29:20;99662.81;;;14.96;68.04
64739;BME280;51175;51.186;0.276;2023-03-25T01:29:51;99666.56;;;14.95;67.71
64739;BME280;51175;51.186;0.276;2023-03-25T01:30:23;99675.66;;;14.94;67.92
64739;BME280;51175;51.186;0.276;2023-03-25T01:31:04;99667.69;;;14.94;67.58
64739;BME280;51175;51.186;0.276;2023-03-25T01:31:37;99673.00;;;14.94;67.88
64739;BME280;51175;51.186;0.276;2023-03-25T01:32:08;99666.88;;;14.93;67.65
64739;BME280;51175;51.186;0.276;2023-03-25T01:32:38;99669.53;;;14.93;67.87
64739;BME280;51175;51.186;0.276;2023-03-25T01:33:09;99667.97;;;14.92;67.77
64739;BME280;51175;51.186;0.276;2023-03-25T01:33:40;99678.63;;;14.92;67.84
64739;BME280;51175;51.186;0.276;2023-03-25T01:34:11;99664.22;;;14.93;67.73
64739;BME280;51175;51.186;0.276;2023-03-25T01:34:42;99672.19;;;14.93;67.76
64739;BME280;51175;51.186;0.276;2023-03-25T01:35:13;99673.31;;;14.92;67.82
64739;BME280;51175;51.186;0.276;2023-03-25T01:35:43;99667.97;;;14.92;67.89
64739;BME280;51175;51.186;0.276;2023-03-25T01:36:14;99669.84;;;14.92;67.78
64739;BME280;51175;51.186;0.276;2023-03-25T01:36:44;99675.97;;;14.92;68.01
64739;BME280;51175;51.186;0.276;2023-03-25T01:37:18;99668.28;;;14.91;68.00
64739;BME280;51175;51.186;0.276;2023-03-25T01:37:48;99661.88;;;14.92;67.92
64739;BME280;51175;51.186;0.276;2023-03-25T01:38:19;99668.28;;;14.91;67.97
64739;BME280;51175;51.186;0.276;2023-03-25T01:38:50;99669.84;;;14.92;67.93
64739;BME280;51175;51.186;0.276;2023-03-25T01:39:21;99667.19;;;14.92;67.75
64739;BME280;51175;51.186;0.276;2023-03-25T01:39:52;99676.28;;;14.91;68.09
64739;BME280;51175;51.186;0.276;2023-03-25T01:40:22;99666.41;;;14.91;67.86
64739;BME280;51175;51.186;0.276;2023-03-25T01:40:53;99669.84;;;14.92;67.87
64739;BME280;51175;51.186;0.276;2023-03-25T01:41:25;99669.84;;;14.92;67.75
64739;BME280;51175;51.186;0.276;2023-03-25T01:41:56;99677.81;;;14.92;67.85
64739;BME280;51175;51.186;0.276;2023-03-25T01:42:26;99677.81;;;14.92;67.76
64739;BME280;51175;51.186;0.276;2023-03-25T01:42:57;99663.75;;;14.91;67.99
64739;BME280;51175;51.186;0.276;2023-03-25T01:43:27;99671.72;;;14.91;67.91
64739;BME280;51175;51.186;0.276;2023-03-25T01:45:14;99676.28;;;14.91;68.02
64739;BME280;51175;51.186;0.276;2023-03-25T01:45:45;99678.94;;;14.91;67.81
64739;BME280;51175;51.186;0.276;2023-03-25T01:46:15;99677.34;;;14.89;67.65
64739;BME280;51175;51.186;0.276;2023-03-25T01:46:47;99679.25;;;14.89;67.81
64739;BME280;51175;51.186;0.276;2023-03-25T01:47:18;99667.81;;;14.88;67.81
64739;BME280;51175;51.186;0.276;2023-03-25T01:47:55;99671.25;;;14.89;67.76
64739;BME280;51175;51.186;0.276;2023-03-25T01:48:36;99670.47;;;14.88;67.72
64739;BME280;51175;51.186;0.276;2023-03-25T01:49:08;99673.13;;;14.88;68.01
64739;BME280;51175;51.186;0.276;2023-03-25T01:49:41;99676.88;;;14.87;67.71
64739;BME280;51175;51.186;0.276;2023-03-25T01:50:13;99675.28;;;14.86;67.86
64739;BME280;51175;51.186;0.276;2023-03-25T01:50:47;99680.63;;;14.86;67.98
64739;BME280;51175;51.186;0.276;2023-03-25T01:51:23;99674.84;;;14.84;68.13
64739;BME280;51175;51.186;0.276;2023-03-25T01:52:02;99681.72;;;14.85;68.04
64739;BME280;51175;51.186;0.276;2023-03-25T01:52:34;99678.25;;;14.85;68.03
64739;BME280;51175;51.186;0.276;2023-03-25T01:53:06;99674.84;;;14.84;67.92
64739;BME280;51175;51.186;0.276;2023-03-25T01:53:37;99675.91;;;14.83;67.89
64739;BME280;51175;51.186;0.276;2023-03-25T01:54:08;99677.50;;;14.84;67.86
64739;BME280;51175;51.186;0.276;2023-03-25T01:54:39;99683.13;;;14.83;67.93
64739;BME280;51175;51.186;0.276;2023-03-25T01:55:11;99679.69;;;14.82;68.06
64739;BME280;51175;51.186;0.276;2023-03-25T01:55:42;99670.16;;;14.81;67.79
64739;BME280;51175;51.186;0.276;2023-03-25T01:56:17;99680.47;;;14.83;67.85
64739;BME280;51175;51.186;0.276;2023-03-25T01:56:49;99673.56;;;14.82;68.07
64739;BME280;51175;51.186;0.276;2023-03-25T01:57:22;99670.16;;;14.81;68.01
64739;BME280;51175;51.186;0.276;2023-03-25T01:57:57;99673.88;;;14.80;68.00
64739;BME280;51175;51.186;0.276;2023-03-25T01:58:30;99679.97;;;14.81;68.03
64739;BME280;51175;51.186;0.276;2023-03-25T01:59:04;99672.00;;;14.81;68.03
64739;BME280;51175;51.186;0.276;2023-03-25T01:59:35;99667.50;;;14.81;68.04
64739;BME280;51175;51.186;0.276;2023-03-25T02:00:07;99673.13;;;14.80;68.15
64739;BME280;51175;51.186;0.276;2023-03-25T02:00:39;99679.19;;;14.80;67.99
64739;BME280;51175;51.186;0.276;2023-03-25T02:01:15;99674.66;;;14.81;68.27
64739;BME280;51175;51.186;0.276;2023-03-25T02:01:47;99671.22;;;14.80;67.99
64739;BME280;51175;51.186;0.276;2023-03-25T02:02:18;99683.75;;;14.80;67.90
64739;BME280;51175;51.186;0.276;2023-03-25T02:02:49;99679.47;;;14.78;67.86
64739;BME280;51175;51.186;0.276;2023-03-25T02:03:23;99675.78;;;14.80;67.96
64739;BME280;51175;51.186;0.276;2023-03-25T02:03:54;99682.94;;;14.79;68.02
64739;BME280;51175;51.186;0.276;2023-03-25T02:04:33;99678.69;;;14.78;68.23
64739;BME280;51175;51.186;0.276;2023-03-25T02:05:18;99678.69;;;14.78;68.12
64739;BME280;51175;51.186;0.276;2023-03-25T02:06:03;99672.59;;;14.77;68.15
64739;BME280;51175;51.186;0.276;2023-03-25T02:06:39;99673.69;;;14.76;68.11
64739;BME280;51175;51.186;0.276;2023-03-25T02:07:11;99672.91;;;14.76;68.25
64739;BME280;51175;51.186;0.276;2023-03-25T02:07:47;99675.56;;;14.76;68.01
64739;BME280;51175;51.186;0.276;2023-03-25T02:08:19;99679.78;;;14.77;67.96
64739;BME280;51175;51.186;0.276;2023-03-25T02:08:52;99671.81;;;14.77;67.99
64739;BME280;51175;51.186;0.276;2023-03-25T02:09:24;99679.78;;;14.77;68.08
64739;BME280;51175;51.186;0.276;2023-03-25T02:10:00;99671.03;;;14.76;68.05
64739;BME280;51175;51.186;0.276;2023-03-25T02:10:31;99676.34;;;14.76;67.94
64739;BME280;51175;51.186;0.276;2023-03-25T02:11:06;99680.88;;;14.76;68.24
64739;BME280;51175;51.186;0.276;2023-03-25T02:11:38;99666.78;;;14.75;68.04
64739;BME280;51175;51.186;0.276;2023-03-25T02:12:08;99680.88;;;14.76;67.86
64739;BME280;51175;51.186;0.276;2023-03-25T02:12:39;99680.09;;;14.75;67.99
64739;BME280;51175;51.186;0.276;2023-03-25T02:13:10;99674.00;;;14.75;68.04
64739;BME280;51175;51.186;0.276;2023-03-25T02:13:41;99674.00;;;14.75;68.02
64739;BME280;51175;51.186;0.276;2023-03-25T02:14:15;99695.28;;;14.75;68.25
64739;BME280;51175;51.186;0.276;2023-03-25T02:14:48;99684.63;;;14.75;68.08
64739;BME280;51175;51.186;0.276;2023-03-25T02:15:18;99677.72;;;14.74;68.18
64739;BME280;51175;51.186;0.276;2023-03-25T02:25:12;99683.03;;;14.65;68.14
64739;BME280;51175;51.186;0.276;2023-03-25T02:29:36;99690.03;;;14.61;68.13
64739;BME280;51175;51.186;0.276;2023-03-25T02:31:05;99687.69;;;14.59;68.31
64739;BME280;51175;51.186;0.276;2023-03-25T02:32:05;99694.09;;;14.58;68.22
64739;BME280;51175;51.186;0.276;2023-03-25T02:33:26;99681.91;;;14.57;68.36
64739;BME280;51175;51.186;0.276;2023-03-25T02:34:16;99685.63;;;14.56;68.31
64739;BME280;51175;51.186;0.276;2023-03-25T02:35:26;99681.41;;;14.55;68.09
64739;BME280;51175;51.186;0.276;2023-03-25T02:39:13;99695.00;;;14.53;68.22
64739;BME280;51175;51.186;0.276;2023-03-25T02:39:53;99687.03;;;14.53;68.42
64739;BME280;51175;51.186;0.276;2023-03-25T02:40:48;99687.84;;;14.54;68.54
64739;BME280;51175;51.186;0.276;2023-03-25T02:43:55;99687.34;;;14.52;68.34
64739;BME280;51175;51.186;0.276;2023-03-25T02:45:50;99676.72;;;14.52;68.34
64739;BME280;51175;51.186;0.276;2023-03-25T02:46:23;99675.91;;;14.51;68.33
64739;BME280;51175;51.186;0.276;2023-03-25T02:46:59;99681.22;;;14.51;68.27
64739;BME280;51175;51.186;0.276;2023-03-25T02:47:34;99686.56;;;14.51;68.50
64739;BME280;51175;51.186;0.276;2023-03-25T02:48:11;99675.16;;;14.51;68.56
64739;BME280;51175;51.186;0.276;2023-03-25T02:48:57;99677.03;;;14.50;68.55
64739;BME280;51175;51.186;0.276;2023-03-25T02:50:18;99682.34;;;14.50;68.57
64739;BME280;51175;51.186;0.276;2023-03-25T02:50:33;99684.19;;;14.50;68.40
64739;BME280;51175;51.186;0.276;2023-03-25T02:51:09;99683.44;;;14.49;68.57
64739;BME280;51175;51.186;0.276;2023-03-25T02:52:54;99689.22;;;14.51;68.45
64739;BME280;51175;51.186;0.276;2023-03-25T02:53:33;99687.66;;;14.50;68.47
64739;BME280;51175;51.186;0.276;2023-03-25T02:54:08;99683.13;;;14.51;68.58
64739;BME280;51175;51.186;0.276;2023-03-25T02:54:41;99687.66;;;14.50;68.52
64739;BME280;51175;51.186;0.276;2023-03-25T02:55:16;99699.06;;;14.51;68.56
64739;BME280;51175;51.186;0.276;2023-03-25T02:55:48;99700.94;;;14.50;68.49
64739;BME280;51175;51.186;0.276;2023-03-25T02:56:22;99696.41;;;14.51;68.58
64739;BME280;51175;51.186;0.276;2023-03-25T02:56:56;99702.50;;;14.51;68.37
64739;BME280;51175;51.186;0.276;2023-03-25T02:57:30;99696.41;;;14.51;68.45
64739;BME280;51175;51.186;0.276;2023-03-25T02:58:06;99697.19;;;14.51;68.65
64739;BME280;51175;51.186;0.276;2023-03-25T02:58:39;99699.84;;;14.51;68.51
64739;BME280;51175;51.186;0.276;2023-03-25T02:59:11;99694.53;;;14.51;68.64
64739;BME280;51175;51.186;0.276;2023-03-25T02:59:45;99699.06;;;14.51;68.36
64739;BME280;51175;51.186;0.276;2023-03-25T03:00:18;99698.28;;;14.50;68.42
64739;BME280;51175;51.186;0.276;2023-03-25T03:00:52;99701.72;;;14.51;68.64
64739;BME280;51175;51.186;0.276;2023-03-25T03:01:24;99689.22;;;14.51;68.33
64739;BME280;51175;51.186;0.276;2023-03-25T03:01:56;99692.66;;;14.52;68.21
64739;BME280;51175;51.186;0.276;2023-03-25T03:02:29;99694.53;;;14.51;68.30
64739;BME280;51175;51.186;0.276;2023-03-25T03:03:03;99688.44;;;14.51;68.44
64739;BME280;51175;51.186;0.276;2023-03-25T03:03:34;99696.41;;;14.51;68.16
64739;BME280;51175;51.186;0.276;2023-03-25T03:04:05;99681.22;;;14.51;68.13
64739;BME280;51175;51.186;0.276;2023-03-25T03:04:52;99689.22;;;14.51;68.01
64739;BME280;51175;51.186;0.276;2023-03-25T03:05:29;99690.31;;;14.50;68.06
64739;BME280;51175;51.186;0.276;2023-03-25T03:06:02;99697.19;;;14.51;68.22
64739;BME280;51175;51.186;0.276;2023-03-25T03:06:40;99691.09;;;14.51;68.40
64739;BME280;51175;51.186;0.276;2023-03-25T03:07:16;99697.19;;;14.51;68.18
64739;BME280;51175;51.186;0.276;2023-03-25T03:07:54;99691.09;;;14.51;68.25
64739;BME280;51175;51.186;0.276;2023-03-25T03:09:27;99689.50;;;14.50;68.35
64739;BME280;51175;51.186;0.276;2023-03-25T03:10:21;99685.31;;;14.49;68.33
64739;BME280;51175;51.186;0.276;2023-03-25T03:12:26;99691.72;;;14.48;68.18
64739;BME280;51175;51.186;0.276;2023-03-25T03:13:01;99697.34;;;14.46;68.15
64739;BME280;51175;51.186;0.276;2023-03-25T03:17:11;99694.50;;;14.43;68.35
64739;BME280;51175;51.186;0.276;2023-03-25T03:17:47;99689.47;;;14.41;68.56
64739;BME280;51175;51.186;0.276;2023-03-25T03:20:49;99689.78;;;14.39;68.31
64739;BME280;51175;51.186;0.276;2023-03-25T03:21:56;99682.91;;;14.38;68.23
64739;BME280;51175;51.186;0.276;2023-03-25T03:22:48;99694.59;;;14.37;68.43
64739;BME280;51175;51.186;0.276;2023-03-25T03:23:26;99695.41;;;14.38;68.20
64739;BME280;51175;51.186;0.276;2023-03-25T03:24:14;99693.84;;;14.37;68.57
64739;BME280;51175;51.186;0.276;2023-03-25T03:24:51;99697.25;;;14.37;68.59
64739;BME280;51175;51.186;0.276;2023-03-25T03:25:32;99699.16;;;14.37;68.25
64739;BME280;51175;51.186;0.276;2023-03-25T03:27:58;99689.59;;;14.36;68.24
64739;BME280;51175;51.186;0.276;2023-03-25T03:28:41;99700.22;;;14.36;68.30
64739;BME280;51175;51.186;0.276;2023-03-25T03:29:47;99703.97;;;14.35;68.51
64739;BME280;51175;51.186;0.276;2023-03-25T03:30:31;99718.06;;;14.35;68.70